createdAt,value
2022-12-07T00:01:45.123Z,17.07
2022-12-07T00:04:15.210Z,18.47
2022-12-07T00:06:44.291Z,17.37
2022-12-07T00:09:14.435Z,17.70
2022-12-07T00:11:41.804Z,18.50
2022-12-07T00:14:12.754Z,17.93
2022-12-07T00:16:39.642Z,18.97
2022-12-07T00:19:06.571Z,17.87
2022-12-07T00:21:35.919Z,17.27
2022-12-07T00:24:05.127Z,18.93
2022-12-07T00:26:37.427Z,18.73
2022-12-07T00:29:12.974Z,18.90
2022-12-07T00:31:40.137Z,20.57
2022-12-07T00:34:12.534Z,19.40
2022-12-07T00:36:39.442Z,18.17
2022-12-07T00:39:06.308Z,19.17
2022-12-07T00:41:33.249Z,20.10
2022-12-07T00:44:00.044Z,19.53
2022-12-07T00:46:27.778Z,20.60
2022-12-07T00:48:55.196Z,21.13
2022-12-07T00:51:24.051Z,20.70
2022-12-07T00:53:51.038Z,18.60
2022-12-07T00:56:26.582Z,19.50
2022-12-07T00:58:55.444Z,18.30
2022-12-07T01:01:23.639Z,19.57
2022-12-07T01:03:50.887Z,19.20
2022-12-07T01:06:19.379Z,20.77
2022-12-07T01:08:46.296Z,20.73
2022-12-07T01:11:16.817Z,19.63
2022-12-07T01:13:44.811Z,18.60
2022-12-07T01:16:14.279Z,19.20
2022-12-07T01:18:41.800Z,19.20
2022-12-07T01:21:12.814Z,18.37
2022-12-07T01:23:40.148Z,20.17
2022-12-07T01:26:13.349Z,19.27
2022-12-07T01:28:40.575Z,19.60
2022-12-07T01:31:08.798Z,19.13
2022-12-07T01:33:37.378Z,19.90
2022-12-07T01:36:06.939Z,18.50
2022-12-07T01:38:34.760Z,19.40
2022-12-07T01:41:02.850Z,19.57
2022-12-07T01:43:32.141Z,19.13
2022-12-07T01:45:59.831Z,18.67
2022-12-07T01:48:39.898Z,18.00
2022-12-07T01:51:11.561Z,19.03
2022-12-07T01:53:43.050Z,19.03
2022-12-07T01:56:15.340Z,18.80
2022-12-07T01:58:42.242Z,18.63
2022-12-07T02:01:09.058Z,19.30
2022-12-07T02:03:41.465Z,18.90
2022-12-07T02:06:10.391Z,19.53
2022-12-07T02:08:37.393Z,19.27
2022-12-07T02:11:06.313Z,18.37
2022-12-07T02:13:36.428Z,19.53
2022-12-07T02:16:12.034Z,19.97
2022-12-07T02:18:47.979Z,19.97
2022-12-07T02:21:28.783Z,18.97
2022-12-07T02:24:17.344Z,19.03
2022-12-07T02:26:47.260Z,19.47
2022-12-07T02:29:26.590Z,19.00
2022-12-07T02:32:09.080Z,20.20
2022-12-07T02:34:46.953Z,19.17
2022-12-07T02:37:30.103Z,20.33
2022-12-07T02:40:23.023Z,22.40
2022-12-07T02:43:01.180Z,19.20
2022-12-07T02:45:30.565Z,17.37
2022-12-07T02:48:00.500Z,18.93
2022-12-07T02:50:28.342Z,18.37
2022-12-07T02:52:55.349Z,19.60
2022-12-07T02:55:28.114Z,18.20
2022-12-07T02:57:58.966Z,17.73
2022-12-07T03:00:25.891Z,16.73
2022-12-07T03:03:01.375Z,17.20
2022-12-07T03:05:34.028Z,17.83
2022-12-07T03:08:18.949Z,19.67
2022-12-07T03:10:48.752Z,19.83
2022-12-07T03:13:33.992Z,20.10
2022-12-07T03:16:10.102Z,20.40
2022-12-07T03:18:48.219Z,17.27
2022-12-07T03:21:22.274Z,18.20
2022-12-07T03:23:54.801Z,18.43
2022-12-07T03:26:24.944Z,17.57
2022-12-07T03:28:56.537Z,17.93
2022-12-07T03:31:27.885Z,17.30
2022-12-07T03:34:30.474Z,19.37
2022-12-07T03:37:18.353Z,19.50
2022-12-07T03:39:58.834Z,19.50
2022-12-07T03:42:26.365Z,18.23
2022-12-07T03:44:53.275Z,18.60
2022-12-07T03:47:44.256Z,17.60
2022-12-07T03:50:28.821Z,18.73
2022-12-07T03:53:06.646Z,19.00
2022-12-07T03:55:37.408Z,20.07
2022-12-07T03:58:09.729Z,18.90
2022-12-07T04:00:36.770Z,18.13
2022-12-07T04:03:03.629Z,17.20
2022-12-07T04:05:30.722Z,17.60
2022-12-07T04:07:57.553Z,18.00
2022-12-07T04:10:24.487Z,18.10
2022-12-07T04:12:51.294Z,19.03
2022-12-07T04:15:18.262Z,18.93
2022-12-07T04:17:45.063Z,16.77
2022-12-07T04:20:12.555Z,17.63
2022-12-07T04:22:39.483Z,17.30
2022-12-07T04:25:06.821Z,17.00
2022-12-07T04:27:33.670Z,17.57
2022-12-07T04:30:01.240Z,19.07
2022-12-07T04:32:28.287Z,17.50
2022-12-07T04:34:56.053Z,16.63
2022-12-07T04:37:23.671Z,18.23
2022-12-07T04:39:50.485Z,17.03
2022-12-07T04:42:17.343Z,17.90
2022-12-07T04:44:44.180Z,17.57
2022-12-07T04:47:11.402Z,17.37
2022-12-07T04:49:38.319Z,17.83
2022-12-07T04:52:05.367Z,17.77
2022-12-07T04:54:32.211Z,18.13
2022-12-07T04:56:59.034Z,17.27
2022-12-07T04:59:26.148Z,17.03
2022-12-07T05:01:53.047Z,16.50
2022-12-07T05:04:19.948Z,16.13
2022-12-07T05:06:46.862Z,15.30
2022-12-07T05:09:13.766Z,15.07
2022-12-07T05:11:40.813Z,14.20
2022-12-07T05:14:08.033Z,14.30
2022-12-07T05:16:34.917Z,14.03
2022-12-07T05:19:01.778Z,12.67
2022-12-07T05:21:29.289Z,11.67
2022-12-07T05:23:56.255Z,12.60
2022-12-07T05:26:23.069Z,11.83
2022-12-07T05:28:54.513Z,12.40
2022-12-07T05:31:22.221Z,12.90
2022-12-07T05:33:49.155Z,12.20
2022-12-07T05:36:16.184Z,13.10
2022-12-07T05:38:43.222Z,12.83
2022-12-07T05:41:33.347Z,12.67
2022-12-07T05:44:00.291Z,12.50
2022-12-07T05:46:27.166Z,13.33
2022-12-07T05:48:54.062Z,13.47
2022-12-07T05:51:21.381Z,13.90
2022-12-07T05:53:48.379Z,13.90
2022-12-07T05:56:15.421Z,12.97
2022-12-07T05:59:00.848Z,12.30
2022-12-07T06:01:28.002Z,13.33
2022-12-07T06:03:54.881Z,11.40
2022-12-07T06:06:21.829Z,12.53
2022-12-07T06:08:48.742Z,12.37
2022-12-07T06:11:33.998Z,13.20
2022-12-07T06:14:00.849Z,12.73
2022-12-07T06:16:27.686Z,12.80
2022-12-07T06:18:54.824Z,12.67
2022-12-07T06:21:21.997Z,12.60
2022-12-07T06:23:49.020Z,12.90
2022-12-07T06:26:15.930Z,14.03
2022-12-07T06:28:42.830Z,12.50
2022-12-07T06:31:13.796Z,12.57
2022-12-07T06:33:42.330Z,13.20
2022-12-07T06:36:10.145Z,11.83
2022-12-07T06:38:37.218Z,12.90
2022-12-07T06:41:04.096Z,12.77
2022-12-07T06:43:31.162Z,13.53
2022-12-07T06:45:58.035Z,13.33
2022-12-07T06:48:24.897Z,12.93
2022-12-07T06:50:55.001Z,13.90
2022-12-07T06:53:22.707Z,13.07
2022-12-07T06:55:49.631Z,14.87
2022-12-07T06:58:16.796Z,17.23
2022-12-07T07:00:44.149Z,16.53
2022-12-07T07:03:11.219Z,15.43
2022-12-07T07:05:38.135Z,15.13
2022-12-07T07:08:21.936Z,14.60
2022-12-07T07:10:49.337Z,12.73
2022-12-07T07:13:16.254Z,14.30
2022-12-07T07:15:43.138Z,13.83
2022-12-07T07:18:09.931Z,13.60
2022-12-07T07:20:37.415Z,14.43
2022-12-07T07:23:04.274Z,13.20
2022-12-07T07:25:31.285Z,14.13
2022-12-07T07:27:58.116Z,14.07
2022-12-07T07:30:25.213Z,13.60
2022-12-07T07:32:52.176Z,14.33
2022-12-07T07:35:19.009Z,15.27
2022-12-07T07:37:45.859Z,13.00
2022-12-07T07:40:12.962Z,13.00
2022-12-07T07:42:40.015Z,14.10
2022-12-07T07:45:07.678Z,13.70
2022-12-07T07:47:34.634Z,12.17
2022-12-07T07:50:02.103Z,13.40
2022-12-07T07:52:29.169Z,11.90
2022-12-07T07:54:56.055Z,13.07
2022-12-07T07:57:22.981Z,12.53
2022-12-07T07:59:50.025Z,11.70
2022-12-07T08:02:19.322Z,12.80
2022-12-07T08:04:46.906Z,12.87
2022-12-07T08:07:15.314Z,12.43
2022-12-07T08:09:42.541Z,13.43
2022-12-07T08:12:10.134Z,12.77
2022-12-07T08:14:37.049Z,11.50
2022-12-07T08:17:03.945Z,12.03
2022-12-07T08:19:30.970Z,12.90
2022-12-07T08:21:57.755Z,11.80
2022-12-07T08:24:25.976Z,13.30
2022-12-07T08:26:53.252Z,11.80
2022-12-07T08:29:20.180Z,12.23
2022-12-07T08:31:47.363Z,13.07
2022-12-07T08:34:14.866Z,12.83
2022-12-07T08:36:41.891Z,13.03
2022-12-07T08:39:30.914Z,12.17
2022-12-07T08:41:55.656Z,12.23
2022-12-07T08:44:22.851Z,12.50
2022-12-07T08:46:59.509Z,12.60
2022-12-07T08:49:33.069Z,12.50
2022-12-07T08:52:00.181Z,12.90
2022-12-07T08:54:28.623Z,11.97
2022-12-07T08:56:59.737Z,12.97
2022-12-07T08:59:28.844Z,13.43
2022-12-07T09:01:55.896Z,12.83
2022-12-07T09:04:22.751Z,11.90
2022-12-07T09:06:49.930Z,13.10
2022-12-07T09:09:16.848Z,12.67
2022-12-07T09:11:43.729Z,12.90
2022-12-07T09:14:10.602Z,11.50
2022-12-07T09:16:37.557Z,11.40
2022-12-07T09:19:04.586Z,11.87
2022-12-07T09:21:31.778Z,9.63
2022-12-07T09:23:58.567Z,10.47
2022-12-07T09:26:25.403Z,11.00
2022-12-07T09:28:52.379Z,10.37
2022-12-07T09:31:24.475Z,9.50
2022-12-07T09:33:59.913Z,9.63
2022-12-07T09:36:27.855Z,9.40
2022-12-07T09:38:54.757Z,9.67
2022-12-07T09:41:23.628Z,9.20
2022-12-07T09:43:51.048Z,8.73
2022-12-07T09:46:20.568Z,9.03
2022-12-07T09:48:49.014Z,9.03
2022-12-07T09:51:25.524Z,8.80
2022-12-07T09:53:57.136Z,8.70
2022-12-07T09:56:24.869Z,9.60
2022-12-07T09:58:59.953Z,9.00
2022-12-07T10:01:31.591Z,9.40
2022-12-07T10:04:19.330Z,10.53
2022-12-07T10:06:46.997Z,8.13
2022-12-07T10:09:16.772Z,8.03
2022-12-07T10:12:08.010Z,8.47
2022-12-07T10:15:06.441Z,8.03
2022-12-07T10:17:44.765Z,9.67
2022-12-07T10:20:27.676Z,7.67
2022-12-07T10:23:02.299Z,7.67
2022-12-07T10:25:39.250Z,6.60
2022-12-07T10:28:09.142Z,6.50
2022-12-07T10:31:00.843Z,7.20
2022-12-07T10:33:34.580Z,6.83
2022-12-07T10:36:15.921Z,6.10
2022-12-07T10:38:48.098Z,6.30
2022-12-07T10:41:14.989Z,7.23
2022-12-07T10:43:54.363Z,6.00
2022-12-07T10:46:36.068Z,7.80
2022-12-07T10:49:08.821Z,6.33
2022-12-07T10:52:02.300Z,6.73
2022-12-07T10:54:49.731Z,7.40
2022-12-07T10:57:26.792Z,5.30
2022-12-07T11:00:02.536Z,5.60
2022-12-07T11:02:57.023Z,5.73
2022-12-07T11:05:50.269Z,5.47
2022-12-07T11:08:41.832Z,6.13
2022-12-07T11:11:15.885Z,4.93
2022-12-07T11:13:50.538Z,6.83
2022-12-07T11:16:23.006Z,5.33
2022-12-07T11:19:28.878Z,5.13
2022-12-07T11:22:07.072Z,6.17
2022-12-07T11:24:54.282Z,4.73
2022-12-07T11:27:43.864Z,4.23
2022-12-07T11:30:21.883Z,4.00
2022-12-07T11:32:58.178Z,4.73
2022-12-07T11:35:45.682Z,4.90
2022-12-07T11:38:26.422Z,3.70
2022-12-07T11:41:13.920Z,4.80
2022-12-07T11:43:57.297Z,3.83
2022-12-07T11:46:49.888Z,4.20
2022-12-07T11:49:38.386Z,4.00
2022-12-07T11:52:15.036Z,4.87
2022-12-07T11:54:46.506Z,4.30
2022-12-07T11:57:33.593Z,4.90
2022-12-07T12:00:13.506Z,4.63
2022-12-07T12:03:12.531Z,4.73
2022-12-07T12:05:40.471Z,4.53
2022-12-07T12:11:35.465Z,4.53
2022-12-07T12:14:33.616Z,6.70
2022-12-07T12:17:28.502Z,4.90
2022-12-07T12:20:20.262Z,4.47
2022-12-07T12:22:56.016Z,4.40
2022-12-07T12:28:32.078Z,5.10
2022-12-07T12:31:08.772Z,3.93
2022-12-07T12:33:38.059Z,3.90
2022-12-07T12:36:17.489Z,3.73
2022-12-07T12:39:00.006Z,3.37
2022-12-07T12:41:47.825Z,3.80
2022-12-07T12:44:20.307Z,3.77
2022-12-07T12:47:03.399Z,4.30
2022-12-07T12:49:34.882Z,4.03
2022-12-07T12:52:30.687Z,3.70
2022-12-07T12:55:21.312Z,4.97
2022-12-07T12:58:09.238Z,3.53
2022-12-07T13:00:36.638Z,3.30
2022-12-07T13:03:06.506Z,3.33
2022-12-07T13:05:39.123Z,3.10
2022-12-07T13:08:21.752Z,3.63
2022-12-07T13:10:49.493Z,3.30
2022-12-07T13:13:16.617Z,3.70
2022-12-07T13:15:43.638Z,3.63
2022-12-07T13:18:28.276Z,4.43
2022-12-07T13:21:10.257Z,4.07
2022-12-07T13:23:46.994Z,4.20
2022-12-07T13:26:33.481Z,4.13
2022-12-07T13:29:15.682Z,3.93
2022-12-07T13:31:51.628Z,4.97
2022-12-07T13:34:42.728Z,4.40
2022-12-07T13:37:19.006Z,4.93
2022-12-07T13:39:59.168Z,4.77
2022-12-07T13:42:28.323Z,4.13
2022-12-07T13:44:58.297Z,4.80
2022-12-07T13:47:46.192Z,4.37
2022-12-07T13:50:32.100Z,5.20
2022-12-07T13:53:02.717Z,4.93
2022-12-07T13:55:30.393Z,5.27
2022-12-07T13:57:57.445Z,5.30
2022-12-07T14:00:26.700Z,4.13
2022-12-07T14:03:02.481Z,3.00
2022-12-07T14:05:37.693Z,2.63
2022-12-07T14:08:11.324Z,2.70
2022-12-07T14:10:40.651Z,2.40
2022-12-07T14:13:54.984Z,2.30
2022-12-07T14:16:37.074Z,2.87
2022-12-07T14:19:46.386Z,2.53
2022-12-07T14:22:26.169Z,2.43
2022-12-07T14:25:20.072Z,2.73
2022-12-07T14:27:59.604Z,2.57
2022-12-07T14:30:32.012Z,2.60
2022-12-07T14:33:06.701Z,2.60
2022-12-07T14:35:34.125Z,2.83
2022-12-07T14:38:01.085Z,3.03
2022-12-07T14:40:30.144Z,2.87
2022-12-07T14:43:04.599Z,3.77
2022-12-07T14:45:31.778Z,7.93
2022-12-07T14:53:42.551Z,3.50
2022-12-07T14:56:09.479Z,3.90
2022-12-07T14:58:36.434Z,3.73
2022-12-07T15:01:03.923Z,3.77
2022-12-07T15:03:31.293Z,3.83
2022-12-07T15:05:58.712Z,3.60
2022-12-07T15:08:25.647Z,3.20
2022-12-07T15:10:58.480Z,3.63
2022-12-07T15:13:44.023Z,3.90
2022-12-07T15:16:17.607Z,4.50
2022-12-07T15:18:53.233Z,5.20
2022-12-07T15:21:31.393Z,4.70
2022-12-07T15:23:58.515Z,4.53
2022-12-07T15:26:25.530Z,7.73
2022-12-07T15:28:55.261Z,4.93
2022-12-07T15:31:54.074Z,4.37
2022-12-07T15:34:09.785Z,5.00
2022-12-07T15:36:37.237Z,4.73
2022-12-07T15:39:19.692Z,5.73
2022-12-07T15:41:46.779Z,5.30
2022-12-07T15:44:33.454Z,5.87
2022-12-07T15:47:01.349Z,6.43
2022-12-07T15:49:29.299Z,6.47
2022-12-07T15:51:56.577Z,7.10
2022-12-07T15:54:26.113Z,6.80
2022-12-07T15:56:53.726Z,6.63
2022-12-07T15:59:21.272Z,6.23
2022-12-07T16:01:48.500Z,6.47
2022-12-07T16:04:15.486Z,5.53
2022-12-07T16:06:43.010Z,6.07
2022-12-07T16:09:09.992Z,5.87
2022-12-07T16:11:37.212Z,5.97
2022-12-07T16:14:03.976Z,6.67
2022-12-07T16:16:31.864Z,4.87
2022-12-07T16:18:59.364Z,4.57
2022-12-07T16:21:26.407Z,5.43
2022-12-07T16:23:53.498Z,6.03
2022-12-07T16:26:22.781Z,4.40
2022-12-07T16:28:52.196Z,5.07
2022-12-07T16:31:23.637Z,5.20
2022-12-07T16:33:51.416Z,4.10
2022-12-07T16:36:47.342Z,4.70
2022-12-07T16:39:14.094Z,5.60
2022-12-07T16:41:41.445Z,4.90
2022-12-07T16:44:11.049Z,4.20
2022-12-07T16:46:38.147Z,4.40
2022-12-07T16:49:05.321Z,3.57
2022-12-07T16:51:32.759Z,3.97
2022-12-07T16:53:59.897Z,3.83
2022-12-07T16:56:27.908Z,4.07
2022-12-07T16:58:55.776Z,4.00
2022-12-07T17:01:24.253Z,3.93
2022-12-07T17:03:54.464Z,3.87
2022-12-07T17:06:27.374Z,4.03
2022-12-07T17:08:54.906Z,3.73
2022-12-07T17:11:28.657Z,3.90
2022-12-07T17:14:14.624Z,4.10
2022-12-07T17:16:41.734Z,4.23
2022-12-07T17:19:11.149Z,5.10
2022-12-07T17:21:39.012Z,7.17
2022-12-07T17:24:09.406Z,5.33
2022-12-07T17:26:37.318Z,5.73
2022-12-07T17:29:06.122Z,6.00
2022-12-07T17:31:33.865Z,6.40
2022-12-07T17:34:00.858Z,5.70
2022-12-07T17:36:30.626Z,6.17
2022-12-07T17:38:58.438Z,5.30
2022-12-07T17:41:46.796Z,7.73
2022-12-07T17:44:16.338Z,5.90
2022-12-07T17:46:44.008Z,5.57
2022-12-07T17:49:11.257Z,5.93
2022-12-07T17:51:56.855Z,4.87
2022-12-07T17:54:24.067Z,5.20
2022-12-07T17:56:53.551Z,4.93
2022-12-07T17:59:22.789Z,5.50
2022-12-07T18:01:49.915Z,5.03
2022-12-07T18:04:16.980Z,6.70
2022-12-07T18:06:48.861Z,5.47
2022-12-07T18:09:21.643Z,5.17
2022-12-07T18:11:48.669Z,6.17
2022-12-07T18:14:16.888Z,5.90
2022-12-07T18:16:44.308Z,6.70
2022-12-07T18:19:14.319Z,6.17
2022-12-07T18:21:41.685Z,6.10
2022-12-07T18:24:13.469Z,6.90
2022-12-07T18:26:41.804Z,7.27
2022-12-07T18:29:10.623Z,6.60
2022-12-07T18:31:37.641Z,7.57
2022-12-07T18:34:08.918Z,7.33
2022-12-07T18:36:35.902Z,7.67
2022-12-07T18:39:05.710Z,7.90
2022-12-07T18:41:33.033Z,8.03
2022-12-07T18:44:00.351Z,7.57
2022-12-07T18:46:27.466Z,7.03
2022-12-07T18:48:57.158Z,7.03
2022-12-07T18:51:30.400Z,7.03
2022-12-07T18:54:00.495Z,6.83
2022-12-07T18:56:27.613Z,8.20
2022-12-07T18:59:15.944Z,7.63
2022-12-07T19:01:45.700Z,7.27
2022-12-07T19:04:13.154Z,7.33
2022-12-07T19:06:42.503Z,8.37
2022-12-07T19:09:09.838Z,8.53
2022-12-07T19:11:52.830Z,8.83
2022-12-07T19:14:32.629Z,7.87
2022-12-07T19:17:06.341Z,8.33
2022-12-07T19:19:39.756Z,8.03
2022-12-07T19:22:08.159Z,8.27
2022-12-07T19:24:35.355Z,9.87
2022-12-07T19:27:03.815Z,9.43
2022-12-07T19:29:33.584Z,9.07
2022-12-07T19:32:01.925Z,9.40
2022-12-07T19:34:28.912Z,10.20
2022-12-07T19:36:55.944Z,9.23
2022-12-07T19:39:23.074Z,10.57
2022-12-07T19:41:50.215Z,10.17
2022-12-07T19:44:19.591Z,10.33
2022-12-07T19:46:53.038Z,10.40
2022-12-07T19:49:21.885Z,10.67
2022-12-07T19:51:51.398Z,11.73
2022-12-07T19:54:21.409Z,11.93
2022-12-07T19:56:49.892Z,11.20
2022-12-07T19:59:18.330Z,11.73
2022-12-07T20:01:45.811Z,11.23
2022-12-07T20:04:20.227Z,10.83
2022-12-07T20:06:55.000Z,11.67
2022-12-07T20:09:22.348Z,11.13
2022-12-07T20:12:08.709Z,11.73
2022-12-07T20:14:36.070Z,10.47
2022-12-07T20:17:03.490Z,10.83
2022-12-07T20:19:30.564Z,11.47
2022-12-07T20:21:57.730Z,11.47
2022-12-07T20:24:25.689Z,12.17
2022-12-07T20:26:54.687Z,11.87
2022-12-07T20:29:24.232Z,12.23
2022-12-07T20:31:54.639Z,12.17
2022-12-07T20:34:22.312Z,12.97
2022-12-07T20:36:51.662Z,12.57
2022-12-07T20:39:18.515Z,13.33
2022-12-07T20:42:03.799Z,12.60
2022-12-07T20:44:30.775Z,13.60
2022-12-07T20:46:57.665Z,13.30
2022-12-07T20:49:24.502Z,15.10
2022-12-07T20:51:52.457Z,14.20
2022-12-07T20:54:21.730Z,14.27
2022-12-07T20:56:48.601Z,15.77
2022-12-07T20:59:16.268Z,14.60
2022-12-07T21:01:43.985Z,15.70
2022-12-07T21:04:13.133Z,15.20
2022-12-07T21:06:40.644Z,14.83
2022-12-07T21:09:08.024Z,15.90
2022-12-07T21:11:34.921Z,16.03
2022-12-07T21:14:02.040Z,16.00
2022-12-07T21:16:31.089Z,15.63
2022-12-07T21:19:02.431Z,15.73
2022-12-07T21:21:30.634Z,16.23
2022-12-07T21:24:02.366Z,14.70
2022-12-07T21:26:33.682Z,15.50
2022-12-07T21:29:01.228Z,15.17
2022-12-07T21:31:28.392Z,15.67
2022-12-07T21:33:55.202Z,16.00
2022-12-07T21:36:25.124Z,14.73
2022-12-07T21:38:52.818Z,15.57
2022-12-07T21:41:31.285Z,15.03
2022-12-07T21:43:58.976Z,14.83
2022-12-07T21:46:33.260Z,13.80
2022-12-07T21:49:05.856Z,13.93
2022-12-07T21:51:33.914Z,13.97
2022-12-07T21:54:01.845Z,14.07
2022-12-07T21:56:40.404Z,14.93
2022-12-07T21:59:12.920Z,14.03
2022-12-07T22:01:41.226Z,14.00
2022-12-07T22:04:11.847Z,13.57
2022-12-07T22:06:39.144Z,14.10
2022-12-07T22:09:06.883Z,14.23
2022-12-07T22:11:34.796Z,12.93
2022-12-07T22:14:21.195Z,13.40
2022-12-07T22:16:48.030Z,13.80
2022-12-07T22:19:14.873Z,13.30
2022-12-07T22:21:41.813Z,14.47
2022-12-07T22:24:10.037Z,15.57
2022-12-07T22:26:37.360Z,12.87
2022-12-07T22:29:04.372Z,13.60
2022-12-07T22:31:31.977Z,12.47
2022-12-07T22:33:58.854Z,12.40
2022-12-07T22:36:25.692Z,11.93
2022-12-07T22:38:52.584Z,12.97
2022-12-07T22:41:31.478Z,12.70
2022-12-07T22:44:00.051Z,14.30
2022-12-07T22:46:28.146Z,16.27
2022-12-07T22:48:55.321Z,15.17
2022-12-07T22:51:28.101Z,16.77
2022-12-07T22:53:57.626Z,16.70
2022-12-07T22:56:24.450Z,17.23
2022-12-07T22:58:51.446Z,16.57
2022-12-07T23:01:19.889Z,16.07
2022-12-07T23:03:47.717Z,15.53
2022-12-07T23:06:24.024Z,16.47
2022-12-07T23:08:51.919Z,18.43
2022-12-07T23:11:42.055Z,17.23
2022-12-07T23:14:18.646Z,17.70
2022-12-07T23:16:46.557Z,17.77
2022-12-07T23:19:14.105Z,17.50
2022-12-07T23:21:41.128Z,16.77
2022-12-07T23:24:08.982Z,17.27
2022-12-07T23:26:36.037Z,15.70
2022-12-07T23:29:03.366Z,16.13
2022-12-07T23:31:30.190Z,16.73
2022-12-07T23:33:59.110Z,17.27
2022-12-07T23:36:27.855Z,16.77
2022-12-07T23:38:59.181Z,17.07
2022-12-07T23:41:30.283Z,16.90
2022-12-07T23:43:59.977Z,16.53
2022-12-07T23:46:30.166Z,15.90
2022-12-07T23:48:59.761Z,17.07
2022-12-07T23:51:29.209Z,18.80
2022-12-07T23:53:57.519Z,17.70
2022-12-07T23:56:30.237Z,16.67
2022-12-07T23:58:58.388Z,17.67
